Elko, NV

5:49 AM PDT on May 30, 2017 (GMT -0700)
Elko Regional | | Change Station
Active Advisory: Areal Flood Warning

Elev 5141 ft 40.82 °N, 115.79 °W | Updated 53 minutes ago

Clear
Clear
44 °F
Feels Like 42 °F
N
4
Wind Variable Wind from West

Today
High -- | Low -- °F
--% Chance of Precip.
Yesterday
High -- | Low -- °F
Precip. -- in
Pressure 29.96 in
Visibility 10.0 miles
Clouds Clear
Windchill 42 °F
Dew Point 35 °F
Humidity 71%
Rainfall 0.00 in
Snow Depth Not available.
5:14 AM 8:07 PM
Waxing Crescent, 29% visible
METAR KEKO 301156Z AUTO 27003KT 10SM CLR 07/02 A3008 RMK AO2 SLP146 T00670017 10150 20067 52002
Pressure 29.96 in
Visibility 10.0 miles
Clouds Clear
Windchill 42 °F
Dew Point 35 °F
Humidity 71%
Rainfall 0.00 in
Snow Depth Not available.
5:14 AM 8:07 PM
Waxing Crescent, 29% visible
METAR KEKO 301156Z AUTO 27003KT 10SM CLR 07/02 A3008 RMK AO2 SLP146 T00670017 10150 20067 52002

Get Your Daily Forecast Email!

Thanks for signing up!

Be on the lookout for a verification email in your inbox.

You'll start receiving severe weather alerts in your inbox..

×

10-Day Weather Forecast

Almanac

Astronomy

May. 30, 2017 Rise Set
Actual Time
Civil Twilight
Nautical Twilight
Astronomical Twilight
Moon
Length of Visible Light
Length of Day
Tomorrow will be .
, % of the Moon is Illuminated

Today's Extremes

State Highs State Lows

Community

WunderPhotos

Category 6

Welcome to Category 6. This is the collective home for Weather Underground's featured writeups by Dr. Jeff Masters (right), Bob Henson (left), Chris Burt, and other regular contributors.

Nearby

Air Quality

  Air Quality AQ Index Pollutant
Not available.

Snow Depth

Station Depth Elevation

Earthquake Activity

City Distance Mag. Time & Date
Minimum magnitude displayed is 2.5.

Coastal Water Temperatures

Place Temperature

Stations

Nearby Weather Stations

Station Location Temp. Windchill Dew Point Humidity Wind Precip. Elev Updated Type
                   

Watches & Warnings

Areal Flood Warning
Issued: 3:01 AM PDT May. 30, 2017 – National Weather Service

... A Flood Warning for snowmelt remains in effect until 845 am PDT
Wednesday for LaMoille creek in central Elko County...

At 253 am PDT, the powerhouse gauge upstream of LaMoille reported
flooding overnight along LaMoille creek. Rapid snowmelt is occurring
and will continue to cause minor flooding through tonight.

Other local streams running out from the Ruby Mountains will also
be running strong during this time.

Some locations that will experience flooding include...
LaMoille and parts of Spring Creek closer to the mountains.

Precautionary/preparedness actions...

Stay away or be swept away. River banks and culverts can become
unstable and unsafe.


Lat... Lon 4085 11537 4074 11546 4068 11545 4065 11537
      4062 11540 4066 11549 4075 11550 4086 11543


Lw